Time;durP1;ratioP1;P1;durP2;ratioP2;P2;SDS_P1;SDS_P2;PMS_P1;PMS_P2;Temp;Humidity;BMP_temperature;BMP_pressure;BME280_temperature;BME280_humidity;BME280_pressure;Samples;Min_cycle;Max_cycle;Signal;HPM_P1;HPM_P2
2022/08/07 00:01:48;;;;;;;2.87;2.60;;;;;;;16.04;64.21;101933.75;5015519;28;20299;-78
2022/08/07 00:04:15;;;;;;;3.30;2.40;;;;;;;16.02;64.39;101939.03;5015433;28;20212;-78
2022/08/07 00:06:42;;;;;;;3.93;2.37;;;;;;;15.86;65.20;101906.84;5014913;28;20664;-77
2022/08/07 00:09:08;;;;;;;2.37;2.17;;;;;;;15.85;65.55;101885.81;5014780;28;20672;-78
2022/08/07 00:11:34;;;;;;;2.20;2.10;;;;;;;15.80;65.04;101880.63;5015132;28;20204;-77
2022/08/07 00:14:01;;;;;;;2.70;2.50;;;;;;;15.81;65.26;101879.72;5015404;28;20205;-78
2022/08/07 00:16:27;;;;;;;3.37;2.60;;;;;;;15.77;65.55;101878.03;5015151;28;20302;-78
2022/08/07 00:18:55;;;;;;;3.50;3.20;;;;;;;15.78;65.42;101882.41;5015576;28;20730;-77
2022/08/07 00:21:22;;;;;;;2.60;2.40;;;;;;;15.66;65.41;101883.47;5012983;28;20201;-77
2022/08/07 00:23:48;;;;;;;3.10;2.80;;;;;;;15.61;65.89;101873.91;5014053;28;20208;-77
2022/08/07 00:26:14;;;;;;;2.83;2.63;;;;;;;15.56;66.92;101846.78;5013574;28;20201;-77
2022/08/07 00:28:42;;;;;;;2.67;2.47;;;;;;;15.59;66.84;101836.22;5014198;28;20205;-77
2022/08/07 00:31:10;;;;;;;5.40;2.80;;;;;;;15.68;65.99;101850.09;5014439;28;20264;-77
2022/08/07 00:33:38;;;;;;;3.47;2.90;;;;;;;15.75;65.86;101864.03;5015157;28;20670;-77
2022/08/07 00:36:07;;;;;;;3.57;3.27;;;;;;;15.55;66.12;101868.75;5015537;28;20253;-77
2022/08/07 00:38:35;;;;;;;3.63;3.33;;;;;;;15.39;66.35;101876.88;5014915;28;20272;-77
2022/08/07 00:41:02;;;;;;;3.40;3.10;;;;;;;15.43;65.52;101870.66;5015151;28;20209;-77
2022/08/07 00:43:29;;;;;;;4.23;3.20;;;;;;;15.27;66.64;101866.56;5014421;28;20232;-77
2022/08/07 00:45:55;;;;;;;3.47;3.17;;;;;;;15.32;66.26;101867.38;5013702;28;20233;-78
2022/08/07 00:48:22;;;;;;;4.97;3.10;;;;;;;15.29;66.70;101854.25;5014000;28;20210;-78
2022/08/07 00:50:48;;;;;;;3.63;3.33;;;;;;;15.24;67.13;101830.66;5013352;28;20271;-77
2022/08/07 00:53:16;;;;;;;4.53;3.20;;;;;;;15.19;66.89;101843.00;5013574;28;20220;-77
2022/08/07 00:55:43;;;;;;;3.60;3.30;;;;;;;15.14;67.02;101830.81;5013460;28;20197;-77
2022/08/07 00:58:09;;;;;;;3.80;3.50;;;;;;;15.09;67.31;101831.75;5013522;28;20206;-77
2022/08/07 01:00:36;;;;;;;3.30;3.00;;;;;;;15.07;67.78;101812.50;5013339;28;20599;-77
2022/08/07 01:03:02;;;;;;;3.83;3.53;;;;;;;14.98;67.79;101810.00;5013975;28;20228;-77
2022/08/07 01:05:29;;;;;;;3.60;3.30;;;;;;;15.03;68.12;101812.56;5013228;28;20254;-77
2022/08/07 01:07:56;;;;;;;3.63;3.37;;;;;;;15.03;68.05;101807.31;5013456;28;20253;-77
2022/08/07 01:10:24;;;;;;;3.53;3.23;;;;;;;14.99;68.10;101806.47;5013536;28;20209;-77
2022/08/07 01:12:50;;;;;;;3.53;3.20;;;;;;;14.91;68.30;101797.84;5013571;28;20221;-77
2022/08/07 01:15:17;;;;;;;3.63;3.33;;;;;;;14.99;68.12;101805.63;5012971;28;20792;-77
2022/08/07 01:17:43;;;;;;;3.20;2.90;;;;;;;15.02;67.97;101808.19;5013375;28;20230;-77
2022/08/07 01:20:13;;;;;;;5.60;3.80;;;;;;;15.01;68.35;101804.69;5013124;28;20669;-77
2022/08/07 01:22:41;;;;;;;3.27;3.07;;;;;;;14.90;68.22;101811.88;5012501;28;20216;-77
2022/08/07 01:25:12;;;;;;;3.63;3.20;;;;;;;14.78;69.06;101788.41;5012313;28;20199;-78
2022/08/07 01:27:38;;;;;;;3.70;3.50;;;;;;;14.77;69.18;101771.75;5013177;28;20202;-77
2022/08/07 01:30:06;;;;;;;3.47;3.27;;;;;;;14.71;69.01;101779.75;5013021;28;20248;-77
2022/08/07 01:32:33;;;;;;;3.97;3.67;;;;;;;14.64;70.28;101759.69;5012821;28;20223;-77
2022/08/07 01:35:00;;;;;;;4.90;3.17;;;;;;;14.68;69.29;101759.59;5010193;28;20579;-77
2022/08/07 01:37:27;;;;;;;3.87;3.57;;;;;;;14.65;70.00;101754.41;5013452;28;20704;-77
2022/08/07 01:39:57;;;;;;;3.60;3.30;;;;;;;14.68;69.95;101748.25;5013246;28;20223;-77
2022/08/07 01:42:24;;;;;;;3.00;2.80;;;;;;;14.53;69.39;101757.19;5013619;28;20242;-77
2022/08/07 01:44:51;;;;;;;4.00;3.00;;;;;;;14.50;69.38;101765.09;5013438;28;20551;-77
2022/08/07 01:47:18;;;;;;;3.77;3.47;;;;;;;14.52;69.55;101765.09;5013668;28;20201;-77
2022/08/07 01:49:45;;;;;;;3.40;3.20;;;;;;;14.56;69.53;101766.78;5012797;28;20295;-77
2022/08/07 01:52:12;;;;;;;3.43;3.13;;;;;;;14.58;69.83;101765.03;5012747;28;20227;-77
2022/08/07 01:54:41;;;;;;;3.47;3.17;;;;;;;14.57;69.20;101769.44;5013153;28;20216;-77
2022/08/07 01:57:13;;;;;;;3.73;3.43;;;;;;;14.52;69.40;101771.22;5013036;28;20232;-77
2022/08/07 01:59:43;;;;;;;4.10;3.80;;;;;;;14.56;69.86;101764.16;5013481;28;20209;-77
2022/08/07 02:02:19;;;;;;;3.83;3.53;;;;;;;14.60;69.63;101768.50;5012669;28;20717;-77
2022/08/07 02:04:51;;;;;;;3.67;3.37;;;;;;;14.69;68.91;101782.38;5012411;28;20872;-77
2022/08/07 02:07:20;;;;;;;4.00;3.70;;;;;;;14.75;68.46;101794.56;5013433;28;20207;-77
2022/08/07 02:09:49;;;;;;;3.53;3.17;;;;;;;14.76;68.47;101813.84;5013204;28;20690;-77
2022/08/07 02:12:18;;;;;;;4.53;3.70;;;;;;;14.77;68.87;101794.56;5013069;28;20227;-77
2022/08/07 02:14:47;;;;;;;3.90;3.10;;;;;;;14.60;69.40;101779.88;5012793;28;20221;-77
2022/08/07 02:17:15;;;;;;;3.37;3.13;;;;;;;14.56;69.98;101772.03;5013317;28;20279;-77
2022/08/07 02:19:44;;;;;;;3.87;3.57;;;;;;;14.48;69.38;101786.13;5013173;28;20209;-77
2022/08/07 02:22:12;;;;;;;3.53;3.23;;;;;;;14.44;69.80;101762.56;5013349;28;20225;-77
2022/08/07 02:24:40;;;;;;;3.70;3.40;;;;;;;14.44;69.19;101773.06;5013394;28;20732;-77
2022/08/07 02:27:07;;;;;;;3.30;2.70;;;;;;;14.46;68.96;101771.28;5013100;28;20692;-78
2022/08/07 02:29:36;;;;;;;4.77;3.60;;;;;;;14.34;69.82;101766.22;5013085;28;20663;-77
2022/08/07 02:32:05;;;;;;;4.67;3.33;;;;;;;14.33;69.84;101746.97;5013858;28;20283;-77
2022/08/07 02:34:33;;;;;;;5.23;3.10;;;;;;;14.29;69.93;101742.59;5013016;28;20567;-77
2022/08/07 02:37:04;;;;;;;3.07;2.87;;;;;;;14.38;69.40;101754.78;5012905;28;20228;-77
2022/08/07 02:39:32;;;;;;;3.03;2.83;;;;;;;14.30;69.85;101753.09;5012610;28;20275;-77
2022/08/07 02:42:00;;;;;;;3.73;3.40;;;;;;;14.45;70.24;101757.28;5013282;28;20228;-77
2022/08/07 02:44:29;;;;;;;3.20;3.00;;;;;;;14.43;69.79;101753.81;5013061;28;20685;-77
2022/08/07 02:46:59;;;;;;;3.27;3.07;;;;;;;14.48;69.38;101766.88;5012830;28;20549;-77
2022/08/07 02:49:26;;;;;;;3.33;3.00;;;;;;;14.42;69.29;101766.97;5013629;28;20211;-77
2022/08/07 02:51:57;;;;;;;3.43;3.13;;;;;;;14.28;69.65;101764.53;5012741;28;20564;-77
2022/08/07 02:54:27;;;;;;;4.87;3.50;;;;;;;14.10;71.12;101734.97;5013210;28;20242;-77
2022/08/07 02:56:55;;;;;;;2.87;2.63;;;;;;;14.08;70.65;101718.38;5013109;28;20346;-77
2022/08/07 02:59:25;;;;;;;3.47;3.17;;;;;;;14.08;70.85;101715.75;5013442;28;20222;-77
2022/08/07 03:01:55;;;;;;;4.07;3.20;;;;;;;14.06;71.23;101717.53;5013060;28;20232;-77
2022/08/07 03:04:23;;;;;;;3.23;2.93;;;;;;;14.05;71.33;101704.41;5013064;28;20282;-77
2022/08/07 03:06:50;;;;;;;3.90;3.60;;;;;;;14.02;71.07;101707.09;5012689;28;20199;-77
2022/08/07 03:09:18;;;;;;;3.67;3.47;;;;;;;13.96;71.46;101715.06;5012512;28;20203;-77
2022/08/07 03:11:45;;;;;;;3.67;3.37;;;;;;;14.02;71.16;101707.09;5012995;28;20299;-77
2022/08/07 03:14:13;;;;;;;3.27;3.00;;;;;;;14.09;70.78;101729.75;5013795;28;20285;-78
2022/08/07 03:16:40;;;;;;;3.07;2.87;;;;;;;14.17;70.25;101748.94;5016331;28;20233;-77
2022/08/07 03:19:07;;;;;;;2.83;2.63;;;;;;;14.17;70.44;101758.53;5016588;28;20215;-77
2022/08/07 03:21:36;;;;;;;3.57;2.90;;;;;;;14.08;70.82;101752.50;5016508;28;20212;-77
2022/08/07 03:24:02;;;;;;;3.23;2.93;;;;;;;13.98;71.63;101715.91;5016351;28;20228;-77
2022/08/07 03:26:33;;;;;;;3.20;2.80;;;;;;;13.85;71.34;101715.16;5016441;28;20214;-77
2022/08/07 03:29:01;;;;;;;4.87;3.23;;;;;;;13.77;72.36;101703.91;5015940;28;20262;-77
2022/08/07 03:31:29;;;;;;;3.40;3.00;;;;;;;13.80;72.68;101683.75;5015606;28;20270;-77
2022/08/07 03:33:59;;;;;;;3.50;3.00;;;;;;;13.76;72.91;101682.03;5015704;28;20211;-77
2022/08/07 03:36:27;;;;;;;3.57;3.00;;;;;;;13.67;73.50;101664.63;5015039;28;20250;-77
2022/08/07 03:38:58;;;;;;;3.47;3.13;;;;;;;13.76;73.43;101649.69;5015221;28;20276;-77
2022/08/07 03:41:26;;;;;;;3.00;2.80;;;;;;;13.72;73.34;101648.84;5015361;28;20303;-77
2022/08/07 03:43:54;;;;;;;3.37;3.07;;;;;;;13.68;73.51;101647.16;5015573;28;20214;-77
2022/08/07 03:46:22;;;;;;;2.97;2.77;;;;;;;13.67;73.45;101645.41;5015250;28;20558;-77
2022/08/07 03:48:49;;;;;;;6.63;3.20;;;;;;;13.64;73.80;101633.22;5015083;28;20204;-77
2022/08/07 03:51:17;;;;;;;3.30;3.00;;;;;;;13.72;73.77;101632.25;5014886;28;20270;-77
2022/08/07 03:53:44;;;;;;;3.80;3.50;;;;;;;13.57;73.71;101647.28;5015125;28;20204;-77
2022/08/07 03:56:15;;;;;;;3.87;3.57;;;;;;;13.56;73.76;101642.94;5015055;28;20262;-77
2022/08/07 03:58:42;;;;;;;4.10;3.70;;;;;;;13.46;74.45;101636.06;5015286;28;20228;-77
2022/08/07 04:01:10;;;;;;;3.53;3.23;;;;;;;13.51;74.19;101623.75;5014906;28;20207;-77
2022/08/07 04:03:37;;;;;;;3.83;3.53;;;;;;;13.43;74.97;101615.09;5014808;28;20633;-77
2022/08/07 04:06:07;;;;;;;5.17;3.17;;;;;;;13.49;74.83;101615.03;5015150;28;20277;-77
2022/08/07 04:08:34;;;;;;;3.63;3.30;;;;;;;13.52;74.59;101630.75;5014985;28;20249;-77
2022/08/07 04:11:00;;;;;;;3.87;3.47;;;;;;;13.50;74.50;101637.75;5015044;28;20620;-77
2022/08/07 04:13:28;;;;;;;4.40;4.10;;;;;;;13.56;75.00;101618.44;5015093;28;20230;-78
2022/08/07 04:15:55;;;;;;;4.00;3.80;;;;;;;13.58;74.98;101614.06;5014747;28;20293;-77
2022/08/07 04:18:21;;;;;;;4.40;4.00;;;;;;;13.51;75.20;101611.47;5014783;28;20580;-77
2022/08/07 04:20:48;;;;;;;4.03;3.73;;;;;;;13.41;75.64;101601.13;5014725;28;20269;-77
2022/08/07 04:23:16;;;;;;;4.13;3.40;;;;;;;13.46;75.59;101597.56;5014546;28;20246;-77
2022/08/07 04:25:43;;;;;;;3.60;3.40;;;;;;;13.51;75.86;101594.88;5013551;28;20607;-77
2022/08/07 04:28:11;;;;;;;3.83;3.53;;;;;;;13.50;75.35;101607.16;5014483;28;20261;-77
2022/08/07 04:30:39;;;;;;;4.20;3.80;;;;;;;13.55;75.01;101619.34;5014079;28;20214;-77
2022/08/07 04:33:07;;;;;;;3.93;3.53;;;;;;;13.51;74.86;101642.09;5013827;28;20280;-77
2022/08/07 04:35:34;;;;;;;3.70;3.40;;;;;;;13.42;75.63;101624.72;5014242;28;20282;-77
2022/08/07 04:38:05;;;;;;;4.13;3.73;;;;;;;13.58;74.75;101632.44;5014550;28;20232;-77
2022/08/07 04:40:31;;;;;;;4.10;3.80;;;;;;;13.66;74.12;101662.06;5013965;28;20207;-77
2022/08/07 04:42:58;;;;;;;3.90;3.67;;;;;;;13.79;75.34;101654.88;5014306;28;20231;-77
2022/08/07 04:45:28;;;;;;;3.97;3.60;;;;;;;13.87;76.00;101611.03;5013952;28;20204;-77
2022/08/07 04:48:05;;;;;;;4.27;3.87;;;;;;;14.02;77.27;101568.81;5014284;28;20257;-77
2022/08/07 04:50:37;;;;;;;4.33;3.97;;;;;;;14.08;75.84;101605.47;5014761;28;20242;-77
2022/08/07 04:53:08;;;;;;;4.00;3.47;;;;;;;14.11;73.82;101662.31;5014144;28;20223;-77
2022/08/07 04:55:39;;;;;;;4.43;4.13;;;;;;;14.13;72.66;101705.19;5013844;28;20254;-77
2022/08/07 04:58:14;;;;;;;4.37;4.00;;;;;;;14.13;72.64;101733.19;5014605;28;20228;-77
2022/08/07 05:00:45;;;;;;;4.30;3.90;;;;;;;14.03;73.23;101741.22;5014157;28;20260;-77
2022/08/07 05:03:25;;;;;;;4.20;3.90;;;;;;;14.05;72.80;101730.66;5013588;28;20575;-77
2022/08/07 05:05:59;;;;;;;4.70;4.40;;;;;;;14.10;72.74;101744.63;5006351;28;20207;-77
2022/08/07 05:08:33;;;;;;;4.37;3.97;;;;;;;14.12;72.76;101752.50;5013775;28;20265;-77
2022/08/07 05:11:09;;;;;;;4.20;3.90;;;;;;;14.23;75.49;101688.44;5013182;28;20578;-77
2022/08/07 05:13:42;;;;;;;4.07;3.77;;;;;;;14.30;74.99;101655.06;5013566;28;20314;-77
2022/08/07 05:16:12;;;;;;;4.43;4.03;;;;;;;14.35;75.02;101653.25;5013713;28;20207;-78
2022/08/07 05:18:47;;;;;;;4.43;4.03;;;;;;;14.35;74.41;101674.25;5013249;28;20228;-77
2022/08/07 05:21:17;;;;;;;4.90;4.50;;;;;;;14.37;73.60;101701.38;5014051;28;20188;-77
2022/08/07 05:23:49;;;;;;;4.77;4.40;;;;;;;14.44;76.09;101660.97;5013599;28;20239;-77
2022/08/07 05:26:18;;;;;;;4.67;3.67;;;;;;;14.58;78.25;101588.97;5013622;28;20677;-77
2022/08/07 05:28:48;;;;;;;4.53;4.13;;;;;;;14.66;78.03;101560.81;5013115;28;20208;-77
2022/08/07 05:31:16;;;;;;;4.40;4.10;;;;;;;14.67;76.25;101623.00;5013341;28;20204;-77
2022/08/07 05:33:45;;;;;;;4.33;3.87;;;;;;;14.74;76.99;101607.97;5013769;28;20262;-77
2022/08/07 05:36:13;;;;;;;4.70;4.30;;;;;;;14.72;74.96;101643.94;5013235;28;20211;-77
2022/08/07 05:38:40;;;;;;;4.00;3.70;;;;;;;14.78;75.12;101670.13;5013297;28;20235;-77
2022/08/07 05:41:07;;;;;;;4.90;4.50;;;;;;;14.82;75.79;101672.66;5013506;28;20216;-77
2022/08/07 05:43:34;;;;;;;4.83;4.30;;;;;;;14.84;75.11;101665.59;5013280;28;20229;-77
2022/08/07 05:46:01;;;;;;;4.53;4.13;;;;;;;14.86;74.67;101687.47;5013619;28;20212;-77
2022/08/07 05:48:28;;;;;;;6.83;5.17;;;;;;;14.94;76.30;101661.06;5013538;28;20203;-77
2022/08/07 05:50:56;;;;;;;5.17;4.77;;;;;;;14.88;74.78;101698.88;5014072;28;20259;-77
2022/08/07 05:53:23;;;;;;;5.07;4.53;;;;;;;14.96;75.39;101695.22;5013752;28;20232;-77
2022/08/07 05:55:50;;;;;;;4.50;4.10;;;;;;;14.93;74.22;101705.81;5013507;28;20212;-77
2022/08/07 05:58:18;;;;;;;6.23;4.30;;;;;;;14.97;75.01;101682.06;5013874;28;20285;-77
2022/08/07 06:00:48;;;;;;;4.47;4.17;;;;;;;15.08;76.88;101642.41;5013889;28;20258;-78
2022/08/07 06:03:16;;;;;;;5.03;4.63;;;;;;;15.06;74.83;101681.00;5013878;28;20278;-77
2022/08/07 06:05:42;;;;;;;7.37;5.20;;;;;;;15.06;72.48;101763.44;5012490;28;20255;-78
2022/08/07 06:08:10;;;;;;;5.00;4.60;;;;;;;15.06;72.78;101778.31;5012937;28;20209;-77
2022/08/07 06:10:38;;;;;;;4.67;4.27;;;;;;;15.07;73.38;101790.59;5012564;28;20227;-77
2022/08/07 06:13:05;;;;;;;5.60;5.20;;;;;;;14.96;73.20;101758.31;5012644;28;20233;-77
2022/08/07 06:15:35;;;;;;;4.73;4.33;;;;;;;15.08;75.40;101714.31;5012554;28;20213;-77
2022/08/07 06:18:02;;;;;;;4.60;4.13;;;;;;;15.16;75.54;101701.00;5012748;28;20227;-78
2022/08/07 06:20:29;;;;;;;5.53;5.03;;;;;;;15.13;75.05;101713.34;5013280;28;20677;-77
2022/08/07 06:22:57;;;;;;;5.87;5.30;;;;;;;15.05;74.45;101711.72;5013051;28;20233;-78
2022/08/07 06:25:25;;;;;;;5.93;5.23;;;;;;;15.01;74.43;101714.44;5013246;28;20214;-78
2022/08/07 06:27:52;;;;;;;6.37;4.90;;;;;;;15.07;75.33;101702.03;5013680;28;20215;-78
2022/08/07 06:30:18;;;;;;;7.00;5.07;;;;;;;15.05;74.92;101709.09;5013331;28;20749;-78
2022/08/07 06:32:45;;;;;;;6.17;5.67;;;;;;;14.93;74.32;101732.09;5012779;28;20285;-78
2022/08/07 06:35:11;;;;;;;5.87;5.47;;;;;;;14.97;76.29;101700.47;5012671;28;20212;-78
2022/08/07 06:37:38;;;;;;;5.67;5.27;;;;;;;15.11;75.93;101692.34;5013207;28;20218;-78
2022/08/07 06:40:05;;;;;;;5.50;5.00;;;;;;;15.26;74.49;101710.47;5013278;28;20235;-78
2022/08/07 06:42:36;;;;;;;6.47;5.80;;;;;;;15.27;75.02;101706.94;5013610;28;20275;-78
2022/08/07 06:45:04;;;;;;;6.73;5.27;;;;;;;15.27;75.27;101711.34;5010008;28;20207;-77
2022/08/07 06:47:30;;;;;;;5.87;5.37;;;;;;;15.37;75.40;101691.84;5012969;28;20209;-78
2022/08/07 06:49:57;;;;;;;5.13;4.70;;;;;;;15.40;75.86;101707.59;5014051;28;20216;-77
2022/08/07 06:52:26;;;;;;;5.37;4.87;;;;;;;15.57;74.06;101720.41;5015272;28;20229;-77
2022/08/07 06:54:53;;;;;;;5.70;5.07;;;;;;;15.63;73.65;101759.78;5015041;28;20202;-77
2022/08/07 06:57:21;;;;;;;5.33;4.87;;;;;;;15.71;72.75;101772.81;5012717;28;20260;-77
2022/08/07 06:59:50;;;;;;;5.57;5.07;;;;;;;15.80;72.99;101775.31;5015285;28;20275;-77
2022/08/07 07:02:21;;;;;;;6.63;4.77;;;;;;;15.91;72.58;101792.66;5015084;28;20220;-77
2022/08/07 07:04:47;;;;;;;5.60;5.10;;;;;;;15.98;71.86;101825.88;5014870;28;20263;-77
2022/08/07 07:07:14;;;;;;;5.47;4.90;;;;;;;16.03;72.46;101816.97;5015543;28;20282;-77
2022/08/07 07:09:46;;;;;;;5.77;5.30;;;;;;;16.04;71.70;101820.50;5012106;28;20740;-77
2022/08/07 07:12:26;;;;;;;5.57;5.00;;;;;;;15.97;71.77;101826.78;5014980;28;20232;-77
2022/08/07 07:15:01;;;;;;;5.20;4.70;;;;;;;16.06;72.36;101814.28;5013703;28;20197;-77
2022/08/07 07:17:34;;;;;;;5.23;4.73;;;;;;;16.19;71.09;101849.16;5015316;28;20205;-77
2022/08/07 07:20:05;;;;;;;4.83;4.47;;;;;;;16.22;71.67;101824.53;5012397;28;20260;-78
2022/08/07 07:22:33;;;;;;;4.67;4.20;;;;;;;16.30;71.41;101825.25;5014944;28;20226;-77
2022/08/07 07:25:01;;;;;;;4.47;4.03;;;;;;;16.41;67.23;101923.41;5014086;28;20201;-77
2022/08/07 07:27:31;;;;;;;4.07;3.73;;;;;;;16.49;65.89;102012.88;5014586;28;20194;-77
2022/08/07 07:30:02;;;;;;;4.37;3.97;;;;;;;16.65;66.85;101993.25;5014452;28;20269;-77
2022/08/07 07:32:30;;;;;;;5.77;4.00;;;;;;;16.73;65.43;102045.84;5014696;28;20230;-77
2022/08/07 07:35:00;;;;;;;4.67;4.37;;;;;;;16.81;64.97;102065.06;5014437;28;20210;-77
2022/08/07 07:37:28;;;;;;;4.50;4.10;;;;;;;16.81;64.27;102094.06;5014606;28;20252;-77
2022/08/07 07:39:59;;;;;;;4.07;3.77;;;;;;;16.87;64.17;102104.50;5013832;28;20238;-77
2022/08/07 07:42:27;;;;;;;3.90;3.50;;;;;;;16.96;63.82;102097.31;5014072;28;20862;-78
2022/08/07 07:44:55;;;;;;;3.83;3.37;;;;;;;17.01;63.50;102108.66;5014320;28;20202;-77
2022/08/07 07:47:25;;;;;;;5.63;3.70;;;;;;;17.04;63.67;102105.94;5011805;28;20723;-77
2022/08/07 07:49:54;;;;;;;3.90;3.60;;;;;;;17.09;63.72;102092.69;5014638;28;20665;-77
2022/08/07 07:52:22;;;;;;;4.03;3.73;;;;;;;17.17;63.28;102101.31;5011930;28;20276;-77
2022/08/07 07:54:51;;;;;;;16.37;6.27;;;;;;;17.21;65.21;102081.88;5014121;28;20261;-77
2022/08/07 07:57:20;;;;;;;5.70;4.27;;;;;;;17.25;66.49;102002.59;5014694;28;20554;-77
2022/08/07 07:59:50;;;;;;;3.70;3.03;;;;;;;17.25;67.22;101944.53;5014267;28;20222;-77
2022/08/07 08:02:18;;;;;;;3.40;3.13;;;;;;;17.36;67.23;101927.56;5013579;28;20559;-77
2022/08/07 08:04:46;;;;;;;4.00;3.70;;;;;;;17.43;66.80;101931.81;5013952;28;20249;-78
2022/08/07 08:07:15;;;;;;;3.83;3.27;;;;;;;17.45;64.23;101972.25;5013805;28;20206;-77
2022/08/07 08:09:43;;;;;;;4.00;3.40;;;;;;;17.57;64.19;102010.69;5011238;28;20641;-77
2022/08/07 08:12:09;;;;;;;3.93;2.83;;;;;;;17.65;61.08;102099.41;5013838;28;20238;-77
2022/08/07 08:14:36;;;;;;;2.73;2.20;;;;;;;17.79;60.22;102159.84;5013895;28;20341;-77
2022/08/07 08:17:03;;;;;;;2.60;2.30;;;;;;;17.88;59.91;102192.28;5013536;28;20205;-77
2022/08/07 08:19:32;;;;;;;3.03;2.73;;;;;;;17.93;59.32;102215.06;5013791;28;20222;-77
2022/08/07 08:27:34;;;;;;;3.97;3.50;;;;;;;18.09;61.04;102168.03;5012453;28;20333;-75
2022/08/07 08:30:04;;;;;;;3.67;3.30;;;;;;;18.16;61.23;102119.44;5015226;28;20276;-76
2022/08/07 08:32:35;;;;;;;3.23;2.93;;;;;;;18.17;60.54;102146.72;5013679;28;20227;-76
2022/08/07 08:35:04;;;;;;;3.60;3.30;;;;;;;18.26;59.08;102184.38;5011060;28;20206;-76
2022/08/07 08:37:35;;;;;;;3.92;3.63;;;;;;;18.35;59.26;102201.78;5013735;28;20435;-76
2022/08/07 08:40:06;;;;;;;2.97;2.70;;;;;;;18.37;59.88;102192.06;5014692;28;20300;-79
2022/08/07 08:42:39;;;;;;;3.00;2.80;;;;;;;18.49;58.84;102216.47;5015510;28;20218;-76
2022/08/07 08:45:14;;;;;;;2.97;2.63;;;;;;;18.55;58.80;102200.47;5011298;28;20221;-76
2022/08/07 08:47:49;;;;;;;3.00;2.80;;;;;;;18.61;57.90;102232.94;5013268;28;20326;-76
2022/08/07 08:50:21;;;;;;;3.87;2.80;;;;;;;18.64;56.89;102261.94;5013184;28;20210;-76
2022/08/07 08:52:55;;;;;;;2.83;2.53;;;;;;;18.68;57.37;102268.03;5010976;28;20219;-76
2022/08/07 08:55:27;;;;;;;5.03;2.80;;;;;;;18.69;57.43;102248.63;5009888;28;20664;-75
2022/08/07 08:58:02;;;;;;;2.53;2.27;;;;;;;18.78;56.67;102269.56;5013168;28;20269;-76
2022/08/07 09:00:36;;;;;;;4.07;2.17;;;;;;;18.81;55.18;102295.09;5012845;28;20256;-76
2022/08/07 09:03:11;;;;;;;2.63;2.43;;;;;;;18.91;55.44;102304.59;5010113;28;20226;-76
2022/08/07 09:05:43;;;;;;;2.60;2.07;;;;;;;18.90;54.83;102324.00;5012472;28;20201;-75
2022/08/07 09:08:21;;;;;;;2.70;2.50;;;;;;;18.96;54.09;102373.28;5013326;28;20210;-76
2022/08/07 09:10:57;;;;;;;2.40;2.10;;;;;;;19.00;53.85;102378.44;5012794;28;20208;-76
2022/08/07 09:13:31;;;;;;;2.27;2.07;;;;;;;19.04;52.10;102381.91;5012869;28;20277;-75
2022/08/07 09:16:04;;;;;;;2.70;1.70;;;;;;;19.02;54.68;102407.53;5012808;28;20256;-76
2022/08/07 09:18:52;;;;;;;2.60;2.10;;;;;;;19.11;52.09;102407.34;5013246;28;20238;-76
2022/08/07 09:21:28;;;;;;;1.80;1.70;;;;;;;19.22;52.11;102431.75;5013207;28;20210;-75
2022/08/07 09:24:05;;;;;;;2.13;1.87;;;;;;;19.25;51.48;102438.78;5013068;28;20221;-76
2022/08/07 09:26:49;;;;;;;2.00;1.67;;;;;;;19.28;50.88;102469.63;5012800;28;20211;-76
2022/08/07 09:29:23;;;;;;;2.00;1.60;;;;;;;19.36;51.16;102467.66;5012972;28;20210;-76
2022/08/07 09:31:57;;;;;;;1.80;1.50;;;;;;;19.42;49.85;102494.91;5013024;28;20245;-76
2022/08/07 09:34:29;;;;;;;1.50;1.40;;;;;;;19.56;50.14;102494.56;5012805;28;20241;-76
2022/08/07 09:37:01;;;;;;;0.80;0.80;;;;;;;19.77;47.50;102532.94;5012448;28;20210;-76
2022/08/07 09:39:46;;;;;;;1.63;0.80;;;;;;;19.90;45.10;102678.44;5012412;28;20646;-77
2022/08/07 09:42:30;;;;;;;1.03;0.80;;;;;;;19.82;43.80;102737.81;5014146;28;20281;-80
2022/08/07 09:45:07;;;;;;;0.90;0.90;;;;;;;19.91;44.54;102699.63;5018609;28;20305;-80
2022/08/07 09:47:44;;;;;;;3.23;1.20;;;;;;;19.99;46.88;102665.84;5019153;28;20210;-80
2022/08/07 09:50:20;;;;;;;2.00;1.23;;;;;;;19.89;45.70;102658.16;5018318;28;20210;-80
2022/08/07 09:52:48;;;;;;;1.20;0.87;;;;;;;19.64;45.25;102671.88;5018122;28;20246;-80
2022/08/07 09:55:21;;;;;;;0.90;0.90;;;;;;;19.67;45.50;102655.06;5015368;28;20199;-80
2022/08/07 09:58:14;;;;;;;1.23;1.10;;;;;;;19.76;45.45;102652.22;5017265;28;20237;-80
2022/08/07 10:00:53;;;;;;;1.03;0.90;;;;;;;19.85;45.59;102652.03;5022548;28;20244;-80
2022/08/07 10:03:42;;;;;;;1.20;1.10;;;;;;;19.94;44.30;102651.84;5020321;28;20233;-80
2022/08/07 10:06:31;;;;;;;1.30;0.97;;;;;;;20.01;45.17;102665.81;5019825;28;20216;-79
2022/08/07 10:09:13;;;;;;;1.00;1.00;;;;;;;19.96;43.53;102660.63;5018031;28;20199;-80
2022/08/07 10:11:55;;;;;;;1.93;0.90;;;;;;;20.10;45.53;102628.50;5018050;28;20652;-80
2022/08/07 10:14:51;;;;;;;1.93;0.80;;;;;;;20.24;47.29;102577.78;5017961;28;20333;-80
2022/08/07 10:17:34;;;;;;;1.67;1.17;;;;;;;20.29;44.60;102591.78;5018872;28;20214;-80
2022/08/07 10:20:15;;;;;;;1.10;1.10;;;;;;;20.40;45.76;102603.00;5017841;28;20241;-80
2022/08/07 10:23:00;;;;;;;1.00;1.00;;;;;;;20.50;46.23;102587.72;5018005;28;20625;-81
2022/08/07 10:25:35;;;;;;;1.63;1.20;;;;;;;20.66;45.69;102550.19;5016524;28;20210;-80
2022/08/07 10:28:17;;;;;;;1.63;0.90;;;;;;;20.70;44.82;102578.38;5017582;28;20236;-82
2022/08/07 10:30:58;;;;;;;0.90;0.90;;;;;;;20.61;43.83;102600.72;5016935;28;20206;-80
2022/08/07 10:33:47;;;;;;;1.27;1.10;;;;;;;20.79;45.01;102615.28;5017666;28;20238;-79
2022/08/07 10:36:25;;;;;;;2.07;1.20;;;;;;;20.86;44.00;102582.34;5017738;28;20333;-80
2022/08/07 10:38:58;;;;;;;0.80;0.80;;;;;;;20.95;43.58;102639.63;5017174;28;20218;-79
2022/08/07 10:41:31;;;;;;;0.93;0.87;;;;;;;21.02;43.22;102646.50;5017080;28;20213;-79
2022/08/07 10:44:11;;;;;;;1.60;0.90;;;;;;;21.19;43.82;102638.94;5017755;28;20278;-80
2022/08/07 10:46:45;;;;;;;1.10;1.00;;;;;;;21.32;42.68;102636.81;5016091;28;20692;-79
2022/08/07 10:49:21;;;;;;;1.50;0.83;;;;;;;21.32;41.63;102676.66;5016346;28;20222;-79
2022/08/07 10:51:56;;;;;;;1.13;0.90;;;;;;;21.32;41.65;102708.53;5017364;28;20226;-79
2022/08/07 10:54:32;;;;;;;1.20;1.10;;;;;;;21.18;41.60;102734.63;5017041;28;20206;-78
2022/08/07 10:57:10;;;;;;;1.23;0.90;;;;;;;21.25;41.38;102714.06;5017029;28;20234;-79
2022/08/07 10:59:52;;;;;;;1.00;1.00;;;;;;;21.42;41.01;102701.19;5017001;28;20694;-79
2022/08/07 11:02:28;;;;;;;3.30;0.90;;;;;;;21.65;41.67;102676.63;5017480;28;20226;-79
2022/08/07 11:05:10;;;;;;;1.00;1.00;;;;;;;21.78;41.39;102678.03;5017929;28;20214;-80
2022/08/07 11:07:42;;;;;;;1.00;0.80;;;;;;;21.71;39.90;102691.53;5018050;28;20909;-80
2022/08/07 11:10:18;;;;;;;1.00;0.90;;;;;;;21.91;41.59;102691.78;5017711;28;20221;-77
2022/08/07 11:12:51;;;;;;;1.10;1.00;;;;;;;21.70;39.08;102711.03;5016898;28;20265;-79
2022/08/07 11:15:23;;;;;;;0.70;0.70;;;;;;;21.89;40.67;102722.03;5017409;28;20254;-79
2022/08/07 11:17:54;;;;;;;1.47;1.00;;;;;;;21.77;39.70;102729.44;5018152;28;20218;-80
2022/08/07 11:20:24;;;;;;;1.67;0.80;;;;;;;22.14;40.97;102687.53;5017478;28;20238;-79
2022/08/07 11:22:59;;;;;;;0.93;0.90;;;;;;;22.54;42.06;102619.75;5017541;28;20277;-80
2022/08/07 11:25:33;;;;;;;1.10;0.80;;;;;;;22.83;39.89;102642.69;5016809;28;20210;-80
2022/08/07 11:28:06;;;;;;;1.37;0.90;;;;;;;22.80;38.42;102712.03;5017747;28;20211;-79
2022/08/07 11:30:49;;;;;;;1.47;0.73;;;;;;;22.35;39.46;102747.22;5017171;28;20207;-78
2022/08/07 11:33:22;;;;;;;0.80;0.80;;;;;;;21.95;39.27;102756.41;5017741;28;20231;-79
2022/08/07 11:36:06;;;;;;;1.53;0.97;;;;;;;21.92;38.24;102740.53;5019419;28;20234;-80
2022/08/07 11:38:39;;;;;;;0.80;0.80;;;;;;;21.70;38.98;102727.00;5021277;28;20219;-79
2022/08/07 11:41:13;;;;;;;1.37;0.90;;;;;;;21.64;39.11;102737.81;5020328;28;20226;-79
2022/08/07 11:43:50;;;;;;;1.40;0.90;;;;;;;21.59;38.29;102701.59;5020630;28;20229;-79
2022/08/07 11:46:35;;;;;;;1.00;0.80;;;;;;;21.61;38.99;102691.78;5020297;28;20218;-80